Time;durP1;ratioP1;P1;durP2;ratioP2;P2;SDS_P1;SDS_P2;PMS_P1;PMS_P2;Temp;Humidity;BMP_temperature;BMP_pressure;BME280_temperature;BME280_humidity;BME280_pressure;Samples;Min_cycle;Max_cycle;Signal;HPM_P1;HPM_P2
2021/07/19 00:01:33;;;;;;;10.75;4.90;;;;;;;18.26;71.20;101089.28;4903872;29;20101;-79
2021/07/19 00:04:00;;;;;;;10.90;4.00;;;;;;;18.19;69.29;101095.81;4870712;29;20498;-77
2021/07/19 00:06:27;;;;;;;11.07;4.68;;;;;;;18.21;70.75;101101.97;4871184;29;20049;-78
2021/07/19 00:08:54;;;;;;;10.77;5.30;;;;;;;18.13;72.48;101094.28;4864669;29;20044;-78
2021/07/19 00:11:21;;;;;;;10.05;4.35;;;;;;;18.10;73.58;101096.25;4859637;29;20047;-79
2021/07/19 00:13:48;;;;;;;11.20;3.92;;;;;;;18.11;69.54;101096.16;4889321;29;20113;-76
2021/07/19 00:16:15;;;;;;;7.15;4.10;;;;;;;18.13;68.33;101096.09;4873010;29;20494;-79
2021/07/19 00:18:42;;;;;;;8.48;4.10;;;;;;;18.07;69.87;101104.38;4878260;29;20049;-79
2021/07/19 00:21:08;;;;;;;8.43;4.13;;;;;;;18.04;70.25;101099.19;4894855;29;20108;-78
2021/07/19 00:23:36;;;;;;;8.25;4.15;;;;;;;18.11;70.60;101100.66;4897072;29;20128;-78
2021/07/19 00:26:05;;;;;;;9.38;4.18;;;;;;;18.02;70.26;101099.25;4889883;29;20561;-80
2021/07/19 00:28:31;;;;;;;5.95;4.25;;;;;;;18.02;70.17;101098.38;4875112;29;20045;-79
2021/07/19 00:30:59;;;;;;;9.00;4.20;;;;;;;18.00;69.65;101093.97;4874850;29;20049;-78
2021/07/19 00:33:26;;;;;;;9.43;4.57;;;;;;;18.16;71.05;101094.16;4879086;29;20087;-80
2021/07/19 00:35:53;;;;;;;10.13;3.78;;;;;;;18.04;69.04;101088.47;4882698;29;20067;-79
2021/07/19 00:38:19;;;;;;;10.32;4.10;;;;;;;18.09;68.39;101099.84;4907601;29;20095;-78
2021/07/19 00:40:46;;;;;;;10.18;4.30;;;;;;;18.00;67.61;101096.66;4864331;29;20045;-79
2021/07/19 00:43:12;;;;;;;11.55;4.82;;;;;;;17.91;67.41;101099.75;4895663;29;20045;-78
2021/07/19 00:45:39;;;;;;;9.63;4.20;;;;;;;17.89;68.64;101098.91;4872324;29;20052;-79
2021/07/19 00:48:06;;;;;;;8.57;3.80;;;;;;;17.93;68.07;101105.00;4893976;29;20049;-79
2021/07/19 00:50:35;;;;;;;8.13;3.65;;;;;;;17.94;68.04;101106.75;4872171;29;20060;-79
2021/07/19 00:53:03;;;;;;;10.07;4.82;;;;;;;17.94;68.92;101099.59;4910229;29;20037;-81
2021/07/19 00:55:39;;;;;;;10.77;4.22;;;;;;;17.94;67.70;101091.56;4860113;29;20063;-78
2021/07/19 00:58:07;;;;;;;9.45;4.43;;;;;;;17.81;67.61;101090.34;4891335;29;20072;-79
2021/07/19 01:00:41;;;;;;;12.50;4.32;;;;;;;17.88;65.75;101089.16;4898624;29;20088;-78
2021/07/19 01:03:09;;;;;;;10.23;4.40;;;;;;;17.67;66.65;101088.28;4879709;29;20056;-78
2021/07/19 01:05:39;;;;;;;10.98;4.55;;;;;;;17.69;67.92;101096.22;4908534;29;20228;-78
2021/07/19 01:08:07;;;;;;;8.45;4.15;;;;;;;17.62;68.89;101092.06;4873576;29;20526;-79
2021/07/19 01:10:35;;;;;;;10.90;5.00;;;;;;;17.61;67.51;101101.88;4877189;29;20049;-79
2021/07/19 01:13:03;;;;;;;6.18;3.83;;;;;;;17.53;67.67;101113.81;4868574;29;20100;-79
2021/07/19 01:15:33;;;;;;;10.98;4.72;;;;;;;17.58;66.31;101107.38;4878544;29;20060;-78
2021/07/19 01:18:00;;;;;;;7.88;4.10;;;;;;;17.54;69.08;101111.09;4863429;29;20045;-76
2021/07/19 01:20:52;;;;;;;8.75;4.20;;;;;;;17.33;68.01;101101.31;4888265;29;20048;-79
2021/07/19 01:23:54;;;;;;;13.63;4.82;;;;;;;17.39;70.64;101106.38;4969073;23;20056;-82
2021/07/19 01:26:42;;;;;;;9.77;4.57;;;;;;;17.31;71.99;101112.03;4953177;28;20484;-79
2021/07/19 01:29:09;;;;;;;10.15;4.55;;;;;;;17.21;70.69;101105.34;4944465;29;20095;-80
2021/07/19 01:31:43;;;;;;;8.88;4.13;;;;;;;17.16;71.55;101107.34;4949949;28;20051;-83
2021/07/19 01:34:13;;;;;;;7.28;4.43;;;;;;;17.07;71.80;101113.06;4945488;28;20047;-82
2021/07/19 01:36:48;;;;;;;11.48;5.03;;;;;;;17.00;71.88;101122.25;4965349;28;20043;-83
2021/07/19 01:39:15;;;;;;;9.85;4.65;;;;;;;16.81;72.16;101117.59;4931270;29;20572;-81
2021/07/19 01:41:43;;;;;;;8.38;3.78;;;;;;;16.80;71.99;101115.88;4912946;29;20055;-82
2021/07/19 01:44:15;;;;;;;13.68;5.22;;;;;;;16.68;72.81;101115.44;4949530;28;20137;-82
2021/07/19 01:46:42;;;;;;;11.05;4.82;;;;;;;16.46;74.23;101131.38;4933764;28;20053;-82
2021/07/19 01:49:10;;;;;;;10.23;4.15;;;;;;;16.39;74.34;101137.88;4909479;29;20058;-82
2021/07/19 01:51:37;;;;;;;10.88;4.35;;;;;;;16.30;75.14;101141.75;4946767;28;20054;-80
2021/07/19 01:54:04;;;;;;;12.13;5.22;;;;;;;16.26;77.00;101145.47;4932250;29;20040;-83
2021/07/19 01:56:32;;;;;;;9.45;4.93;;;;;;;16.10;74.77;101131.81;4933775;29;20075;-82
2021/07/19 01:58:59;;;;;;;17.45;5.55;;;;;;;16.21;75.58;101134.09;4926810;28;20089;-80
2021/07/19 02:01:26;;;;;;;11.13;5.10;;;;;;;16.14;75.37;101141.41;4910016;29;20489;-83
2021/07/19 02:03:54;;;;;;;10.55;4.68;;;;;;;16.01;77.34;101143.66;4923553;29;20051;-82
2021/07/19 02:06:21;;;;;;;6.25;4.40;;;;;;;15.96;77.62;101142.09;4936011;29;20052;-80
2021/07/19 02:08:52;;;;;;;12.73;4.80;;;;;;;15.88;75.63;101133.47;4932693;29;20095;-83
2021/07/19 02:11:26;;;;;;;7.78;5.22;;;;;;;15.78;76.74;101138.25;4934815;29;20675;-81
2021/07/19 02:13:53;;;;;;;8.60;4.65;;;;;;;15.74;76.13;101137.50;4951379;29;20046;-80
2021/07/19 02:16:21;;;;;;;9.82;4.18;;;;;;;15.63;77.38;101134.31;4906319;29;20039;-83
2021/07/19 02:18:49;;;;;;;11.90;4.43;;;;;;;15.64;76.05;101144.09;4923835;29;20049;-82
2021/07/19 02:21:19;;;;;;;10.95;5.15;;;;;;;15.60;77.53;101142.38;4934755;29;20051;-80
2021/07/19 02:23:47;;;;;;;10.07;5.07;;;;;;;15.44;78.48;101144.69;4947465;28;21886;-80
2021/07/19 02:26:15;;;;;;;9.93;4.82;;;;;;;15.41;79.00;101149.25;4959764;28;20040;-82
2021/07/19 02:28:42;;;;;;;8.52;5.22;;;;;;;15.33;79.08;101146.84;4957705;28;20105;-81
2021/07/19 02:31:09;;;;;;;10.43;5.00;;;;;;;15.31;78.96;101140.69;4946361;29;20302;-80
2021/07/19 02:33:37;;;;;;;11.40;5.20;;;;;;;15.33;78.79;101143.31;4914765;29;20043;-80
2021/07/19 02:36:05;;;;;;;8.93;4.88;;;;;;;15.29;78.84;101141.66;4950149;28;20055;-83
2021/07/19 02:38:33;;;;;;;8.82;4.90;;;;;;;15.24;80.97;101143.59;4967156;28;20051;-81
2021/07/19 02:41:00;;;;;;;10.98;4.78;;;;;;;15.25;79.50;101148.00;4936396;29;20047;-80
2021/07/19 02:43:27;;;;;;;8.88;4.25;;;;;;;15.19;81.43;101138.41;4934771;29;20524;-81
2021/07/19 02:45:55;;;;;;;11.45;5.68;;;;;;;15.17;80.49;101135.81;4934368;29;20040;-81
2021/07/19 02:48:21;;;;;;;9.68;5.32;;;;;;;15.10;80.70;101150.22;4952904;28;20102;-83
2021/07/19 02:50:50;;;;;;;10.38;5.60;;;;;;;15.17;81.62;101150.91;4947852;29;20107;-80
2021/07/19 02:53:18;;;;;;;13.02;5.15;;;;;;;15.16;80.90;101157.16;4948423;28;20118;-80
2021/07/19 02:55:46;;;;;;;11.20;4.65;;;;;;;15.13;82.27;101152.81;4922693;29;20675;-81
2021/07/19 02:58:15;;;;;;;7.65;4.60;;;;;;;15.15;81.61;101156.28;4930168;29;20043;-81
2021/07/19 03:00:43;;;;;;;9.73;4.13;;;;;;;15.18;80.69;101161.50;4961504;28;20193;-82
2021/07/19 03:03:37;;;;;;;15.15;5.63;;;;;;;15.21;79.96;101150.75;4919694;29;20106;-82
2021/07/19 03:06:07;;;;;;;8.70;4.32;;;;;;;15.10;80.51;101157.34;4945255;28;20063;-82
2021/07/19 03:08:37;;;;;;;12.32;4.88;;;;;;;15.10;80.20;101155.53;4935774;29;20429;-82
2021/07/19 03:11:07;;;;;;;7.88;4.60;;;;;;;14.96;80.97;101157.75;4931493;29;20106;-82
2021/07/19 03:13:34;;;;;;;11.48;5.07;;;;;;;14.93;81.38;101158.72;4931546;29;20042;-81
2021/07/19 03:16:01;;;;;;;12.20;5.03;;;;;;;14.88;82.92;101162.44;4939126;29;20107;-83
2021/07/19 03:18:28;;;;;;;8.05;4.85;;;;;;;14.95;82.06;101166.66;4937115;28;20181;-81
2021/07/19 03:20:56;;;;;;;7.80;4.38;;;;;;;14.84;83.73;101176.75;4930677;28;20052;-81
2021/07/19 03:23:25;;;;;;;10.25;4.78;;;;;;;14.79;84.03;101176.00;4947288;29;20043;-80
2021/07/19 03:25:52;;;;;;;10.32;4.80;;;;;;;14.88;81.88;101179.31;4933824;29;20039;-83
2021/07/19 03:28:20;;;;;;;6.72;4.70;;;;;;;14.91;82.91;101186.31;4967144;28;20055;-80
2021/07/19 03:30:48;;;;;;;10.10;4.70;;;;;;;14.81;82.72;101185.72;4931606;29;20094;-82
2021/07/19 03:33:15;;;;;;;8.77;4.95;;;;;;;14.75;83.32;101188.53;4953470;28;20921;-81
2021/07/19 03:35:42;;;;;;;15.20;5.25;;;;;;;14.77;83.61;101185.84;4927087;29;20548;-80
2021/07/19 03:38:13;;;;;;;9.27;4.90;;;;;;;14.78;84.04;101193.75;4953795;28;20079;-81
2021/07/19 03:40:40;;;;;;;12.20;6.22;;;;;;;14.76;84.50;101194.75;4951161;29;20044;-82
2021/07/19 03:43:07;;;;;;;12.60;6.05;;;;;;;14.79;84.70;101194.63;4948078;29;20047;-81
2021/07/19 03:45:33;;;;;;;8.73;4.90;;;;;;;14.85;85.26;101189.13;4952925;29;20056;-82
2021/07/19 03:48:02;;;;;;;11.95;5.20;;;;;;;14.89;84.77;101189.03;4941307;28;20142;-81
2021/07/19 03:50:35;;;;;;;9.75;5.13;;;;;;;14.89;84.44;101196.13;4924421;29;20063;-81
2021/07/19 03:53:02;;;;;;;9.80;4.65;;;;;;;14.92;84.15;101186.25;4952622;29;20672;-81
2021/07/19 03:55:28;;;;;;;8.98;5.70;;;;;;;15.01;85.42;101190.44;4956427;28;20101;-81
2021/07/19 03:57:55;;;;;;;15.30;5.18;;;;;;;14.99;83.82;101186.94;4920262;29;20074;-81
2021/07/19 04:00:22;;;;;;;10.65;5.20;;;;;;;15.04;83.84;101178.81;4933097;29;20078;-80
2021/07/19 04:02:52;;;;;;;12.82;5.40;;;;;;;15.05;83.40;101186.78;4929086;29;20577;-82
2021/07/19 04:05:24;;;;;;;14.15;5.80;;;;;;;14.95;82.29;101190.59;4923336;29;20062;-80
2021/07/19 04:07:51;;;;;;;11.00;5.03;;;;;;;15.03;83.58;101190.38;4932213;29;20056;-81
2021/07/19 04:10:19;;;;;;;10.43;4.60;;;;;;;14.99;82.61;101199.38;4932895;28;20035;-80
2021/07/19 04:12:48;;;;;;;7.85;5.05;;;;;;;15.07;83.36;101197.38;4954741;29;20051;-80
2021/07/19 04:15:15;;;;;;;8.43;4.82;;;;;;;15.09;83.98;101193.72;4935373;29;20048;-80
2021/07/19 04:17:44;;;;;;;7.13;5.03;;;;;;;15.12;83.58;101196.28;4952485;28;20106;-82
2021/07/19 04:20:12;;;;;;;9.90;4.95;;;;;;;15.17;82.84;101193.50;4951561;28;20051;-81
2021/07/19 04:22:39;;;;;;;8.95;4.55;;;;;;;15.02;82.24;101186.84;4937907;29;20047;-80
2021/07/19 04:25:08;;;;;;;9.80;4.68;;;;;;;15.10;80.65;101195.47;4941283;28;20048;-82
2021/07/19 04:27:36;;;;;;;10.48;5.22;;;;;;;15.12;83.00;101198.94;4936078;29;20063;-82
2021/07/19 04:30:05;;;;;;;10.85;4.78;;;;;;;15.07;82.87;101200.91;4962848;28;20047;-81
2021/07/19 04:32:31;;;;;;;9.20;5.13;;;;;;;15.04;82.34;101208.94;4926241;29;20102;-81
2021/07/19 04:34:58;;;;;;;14.07;4.97;;;;;;;14.98;81.66;101225.13;4947281;28;20043;-81
2021/07/19 04:37:25;;;;;;;11.23;5.07;;;;;;;15.09;82.47;101215.03;4935858;29;20043;-83
2021/07/19 04:39:52;;;;;;;10.48;5.38;;;;;;;15.15;82.47;101209.50;4920223;29;20520;-79
2021/07/19 04:42:19;;;;;;;8.82;4.93;;;;;;;15.18;82.25;101205.88;4919896;29;20390;-81
2021/07/19 04:44:45;;;;;;;8.00;4.80;;;;;;;15.15;82.04;101212.19;4920171;29;20043;-81
2021/07/19 04:47:12;;;;;;;10.18;6.30;;;;;;;15.17;82.53;101210.34;4922586;28;20080;-81
2021/07/19 04:49:40;;;;;;;8.50;4.65;;;;;;;15.22;82.73;101210.22;4914126;29;20074;-81
2021/07/19 04:52:07;;;;;;;10.13;4.97;;;;;;;15.24;81.65;101208.38;4959309;28;20035;-81
2021/07/19 04:54:38;;;;;;;13.93;5.30;;;;;;;15.34;80.54;101203.63;4920986;29;20058;-80
2021/07/19 04:57:12;;;;;;;12.73;5.65;;;;;;;15.21;79.93;101209.31;4946848;29;20134;-81
2021/07/19 04:59:42;;;;;;;12.88;5.43;;;;;;;15.19;81.76;101207.63;4935665;28;20043;-80
2021/07/19 05:02:11;;;;;;;12.55;5.07;;;;;;;15.24;82.82;101207.50;4959408;28;20094;-81
2021/07/19 05:04:38;;;;;;;9.35;4.90;;;;;;;15.26;81.22;101203.84;4946723;28;20039;-81
2021/07/19 05:07:05;;;;;;;10.52;5.65;;;;;;;15.33;80.95;101208.06;4945665;29;20043;-81
2021/07/19 05:09:34;;;;;;;8.18;5.22;;;;;;;15.35;81.58;101203.56;4933408;28;20549;-81
2021/07/19 05:12:01;;;;;;;10.75;4.63;;;;;;;15.41;79.86;101205.16;4936116;29;20051;-81
2021/07/19 05:14:28;;;;;;;10.98;5.10;;;;;;;15.50;80.93;101210.19;4934930;29;20091;-81
2021/07/19 05:16:57;;;;;;;9.70;5.20;;;;;;;15.72;81.55;101208.63;4919923;29;20043;-81
2021/07/19 05:19:24;;;;;;;13.15;5.65;;;;;;;15.72;79.78;101205.97;4924491;29;20497;-81
2021/07/19 05:21:50;;;;;;;11.73;5.35;;;;;;;15.74;79.68;101198.78;4927627;28;20044;-81
2021/07/19 05:24:17;;;;;;;10.98;5.53;;;;;;;15.74;80.58;101206.78;4947688;28;20143;-83
2021/07/19 05:26:45;;;;;;;9.10;4.90;;;;;;;15.80;78.17;101208.34;4926712;29;20461;-83
2021/07/19 05:29:12;;;;;;;12.57;5.45;;;;;;;15.74;79.84;101209.44;4918105;29;20102;-83
2021/07/19 05:31:38;;;;;;;8.50;4.63;;;;;;;15.73;78.98;101207.69;4935033;29;20063;-83
2021/07/19 05:34:05;;;;;;;9.07;4.85;;;;;;;15.68;80.48;101212.28;4937189;29;20411;-82
2021/07/19 05:36:32;;;;;;;9.43;5.30;;;;;;;15.67;78.13;101213.22;4960515;28;20295;-82
2021/07/19 05:38:59;;;;;;;11.57;5.50;;;;;;;15.72;77.64;101211.28;4948348;29;20535;-81
2021/07/19 05:41:25;;;;;;;10.73;5.97;;;;;;;15.93;76.60;101215.00;4908033;29;20051;-83
2021/07/19 05:43:52;;;;;;;11.07;5.45;;;;;;;15.86;77.47;101216.13;4946040;29;20110;-80
2021/07/19 05:46:19;;;;;;;8.65;4.93;;;;;;;16.03;77.67;101216.44;4918425;28;20058;-81
2021/07/19 05:48:46;;;;;;;8.77;4.72;;;;;;;16.22;75.92;101211.34;4960572;28;20057;-80
2021/07/19 05:51:13;;;;;;;10.27;5.93;;;;;;;16.40;76.51;101215.19;4947903;28;20066;-81
2021/07/19 05:53:40;;;;;;;10.88;5.03;;;;;;;16.59;75.11;101220.72;4955274;28;20051;-80
2021/07/19 05:56:09;;;;;;;7.00;4.55;;;;;;;16.71;75.13;101217.59;4927020;28;20683;-80
2021/07/19 05:58:35;;;;;;;9.57;4.82;;;;;;;17.04;76.10;101222.59;4909633;29;20038;-81
2021/07/19 06:01:02;;;;;;;13.23;5.38;;;;;;;17.37;72.93;101221.28;4954817;28;20039;-80
2021/07/19 06:03:30;;;;;;;9.18;4.78;;;;;;;17.54;70.79;101217.09;4943471;28;20130;-81
2021/07/19 06:05:57;;;;;;;8.82;4.80;;;;;;;17.62;70.36;101215.84;4939018;29;20040;-80
2021/07/19 06:08:24;;;;;;;11.32;5.53;;;;;;;17.75;68.18;101220.72;4916788;29;20394;-79
2021/07/19 06:10:50;;;;;;;9.73;5.45;;;;;;;18.45;66.46;101218.56;4956568;28;20051;-80
2021/07/19 06:13:17;;;;;;;9.35;5.15;;;;;;;18.93;65.02;101222.69;4932769;29;20186;-80
2021/07/19 06:15:45;;;;;;;10.52;4.85;;;;;;;19.57;62.36;101211.59;4937134;28;20052;-82
2021/07/19 06:18:11;;;;;;;7.60;5.55;;;;;;;19.96;60.64;101219.47;4953644;28;20044;-82
2021/07/19 06:20:38;;;;;;;10.85;4.97;;;;;;;20.01;60.02;101211.22;4962968;28;20149;-78
2021/07/19 06:23:05;;;;;;;10.88;5.47;;;;;;;20.01;61.15;101208.53;4956899;28;20091;-83
2021/07/19 06:25:34;;;;;;;8.38;5.18;;;;;;;19.98;60.62;101210.47;4949146;28;20047;-82
2021/07/19 06:28:03;;;;;;;9.43;5.13;;;;;;;19.37;59.63;101211.69;4929087;29;20074;-80
2021/07/19 06:30:30;;;;;;;8.68;5.32;;;;;;;19.92;60.58;101217.88;4926589;29;20044;-81
2021/07/19 06:32:57;;;;;;;10.05;5.40;;;;;;;19.66;61.09;101216.50;4940921;28;20138;-80
2021/07/19 06:35:24;;;;;;;8.65;5.40;;;;;;;19.66;62.24;101212.94;4949986;28;20135;-78
2021/07/19 06:37:51;;;;;;;10.55;5.53;;;;;;;19.99;60.78;101213.06;4950761;29;20047;-79
2021/07/19 06:40:18;;;;;;;10.88;6.00;;;;;;;20.12;59.47;101221.38;4907294;29;20449;-79
2021/07/19 06:42:45;;;;;;;13.05;5.90;;;;;;;20.04;58.25;101211.03;4921419;29;20044;-78
2021/07/19 06:45:12;;;;;;;10.88;5.28;;;;;;;19.96;60.13;101216.78;4920678;29;20055;-81
2021/07/19 06:47:40;;;;;;;10.38;5.90;;;;;;;20.01;59.79;101204.94;4921534;28;20582;-81
2021/07/19 06:50:08;;;;;;;8.25;5.32;;;;;;;20.27;61.01;101206.31;4945387;28;20040;-81
2021/07/19 06:52:36;;;;;;;9.95;5.97;;;;;;;20.27;58.06;101206.31;4929167;28;20051;-80
2021/07/19 06:55:04;;;;;;;8.70;5.40;;;;;;;20.65;59.11;101202.50;4936350;28;20489;-80
2021/07/19 06:57:31;;;;;;;9.80;5.57;;;;;;;20.93;58.26;101200.97;4959517;28;20062;-79
2021/07/19 06:59:58;;;;;;;9.18;5.22;;;;;;;20.94;56.86;101200.06;4932040;29;20441;-81
2021/07/19 07:02:24;;;;;;;9.90;5.43;;;;;;;21.16;56.18;101207.78;4951530;28;20049;-80
2021/07/19 07:04:51;;;;;;;8.45;5.22;;;;;;;21.05;55.88;101198.50;4940868;28;20047;-80
2021/07/19 07:07:18;;;;;;;11.52;6.40;;;;;;;21.09;57.22;101208.09;4962688;28;20071;-81
2021/07/19 07:09:45;;;;;;;7.97;5.85;;;;;;;20.63;58.81;101203.53;4932609;29;20119;-81
2021/07/19 07:12:23;;;;;;;10.77;5.45;;;;;;;20.66;57.43;101217.66;4935013;29;20036;-81
2021/07/19 07:14:49;;;;;;;9.38;5.72;;;;;;;20.38;55.42;101212.84;4935344;29;20059;-80
2021/07/19 07:17:16;;;;;;;10.57;6.63;;;;;;;19.98;56.23;101215.84;4938267;29;20047;-80
2021/07/19 07:19:48;;;;;;;12.05;6.47;;;;;;;20.10;59.10;101215.25;4947864;28;20134;-81
2021/07/19 07:22:15;;;;;;;9.77;6.03;;;;;;;20.15;59.19;101208.66;4936844;29;20051;-81
2021/07/19 07:24:42;;;;;;;9.50;5.88;;;;;;;20.19;60.44;101195.97;4937626;28;20597;-80
2021/07/19 07:27:09;;;;;;;7.95;5.82;;;;;;;20.00;58.31;101217.50;4940167;28;20051;-82
2021/07/19 07:29:36;;;;;;;10.65;6.63;;;;;;;19.90;58.76;101214.41;4946348;28;20045;-84
2021/07/19 07:32:04;;;;;;;9.98;5.72;;;;;;;19.82;60.60;101211.25;4945949;29;20044;-80
2021/07/19 07:34:44;;;;;;;9.88;5.75;;;;;;;19.99;61.00;101202.34;5142902;27;20403;-80
2021/07/19 07:37:12;;;;;;;10.63;6.82;;;;;;;20.07;61.20;101202.81;5089646;28;20416;-82
2021/07/19 07:39:40;;;;;;;10.93;5.95;;;;;;;19.98;57.54;101205.97;5084844;28;20048;-82
2021/07/19 07:42:08;;;;;;;8.65;6.15;;;;;;;19.79;58.50;101210.53;5109504;28;20439;-82
2021/07/19 07:44:35;;;;;;;9.50;6.75;;;;;;;19.38;60.73;101208.91;5077057;28;20058;-81
2021/07/19 07:47:02;;;;;;;7.22;5.68;;;;;;;19.30;61.84;101202.19;5108911;28;20496;-81
2021/07/19 07:49:29;;;;;;;10.30;5.95;;;;;;;19.40;62.43;101204.34;5071161;28;20048;-79
2021/07/19 07:51:58;;;;;;;8.55;6.20;;;;;;;19.23;60.39;101206.09;5109875;27;20044;-83
2021/07/19 07:54:28;;;;;;;10.77;6.57;;;;;;;19.17;62.62;101201.94;5095478;28;20549;-81
2021/07/19 07:56:55;;;;;;;12.00;6.43;;;;;;;18.79;62.12;101206.38;5103690;28;20411;-81
2021/07/19 07:59:26;;;;;;;12.60;6.70;;;;;;;18.35;62.53;101211.03;5104686;28;20039;-80
2021/07/19 08:01:53;;;;;;;9.88;6.35;;;;;;;18.62;64.50;101209.78;5086665;28;20040;-81
2021/07/19 08:04:20;;;;;;;11.60;6.22;;;;;;;18.76;63.88;101206.53;5069983;28;20040;-82
2021/07/19 08:06:47;;;;;;;12.23;6.32;;;;;;;18.82;64.91;101198.19;5070323;28;20110;-81
2021/07/19 08:09:17;;;;;;;8.63;5.93;;;;;;;18.81;64.86;101194.66;5069256;28;20078;-83
2021/07/19 08:11:43;;;;;;;9.93;6.03;;;;;;;18.73;63.39;101212.00;5083745;28;20050;-80
2021/07/19 08:14:10;;;;;;;9.13;5.88;;;;;;;18.69;62.95;101208.63;5078574;28;20035;-81
2021/07/19 08:16:39;;;;;;;9.90;6.35;;;;;;;18.77;64.03;101209.13;5097741;28;20077;-81
2021/07/19 08:19:07;;;;;;;9.02;5.40;;;;;;;18.71;61.56;101205.84;5084938;28;20044;-82
2021/07/19 08:21:35;;;;;;;10.50;5.65;;;;;;;18.94;65.00;101204.81;5082291;28;20052;-79
2021/07/19 08:24:02;;;;;;;9.77;5.75;;;;;;;18.92;62.12;101212.03;5100269;28;20050;-80
2021/07/19 08:26:29;;;;;;;9.73;5.32;;;;;;;18.96;61.67;101197.56;5103269;28;20040;-82
2021/07/19 08:28:55;;;;;;;9.95;6.43;;;;;;;19.18;64.52;101192.06;5116958;27;20715;-81
2021/07/19 08:31:23;;;;;;;11.27;6.07;;;;;;;18.94;61.88;101202.13;5095664;28;20058;-81
2021/07/19 08:33:53;;;;;;;8.80;5.35;;;;;;;19.10;59.87;101193.31;5090805;28;20256;-80
2021/07/19 08:36:20;;;;;;;8.63;5.47;;;;;;;19.11;62.55;101203.06;5058591;28;20059;-82
2021/07/19 08:38:47;;;;;;;10.80;5.45;;;;;;;18.97;60.68;101199.31;5089140;28;20040;-82
2021/07/19 08:41:15;;;;;;;10.02;6.13;;;;;;;19.28;63.42;101204.94;5089077;28;20129;-82
2021/07/19 08:43:44;;;;;;;11.05;6.18;;;;;;;19.36;61.14;101201.91;5095260;28;20032;-82
2021/07/19 08:46:11;;;;;;;7.93;5.22;;;;;;;19.50;57.66;101188.69;5072934;28;20496;-81
2021/07/19 08:48:38;;;;;;;9.52;5.97;;;;;;;19.56;60.76;101198.25;5055311;28;20051;-82
2021/07/19 08:51:06;;;;;;;10.77;6.05;;;;;;;19.74;60.59;101200.03;5065667;28;20048;-80
2021/07/19 08:53:34;;;;;;;10.15;5.18;;;;;;;19.73;57.70;101198.31;5089021;28;20040;-80
2021/07/19 08:56:02;;;;;;;10.43;5.68;;;;;;;19.84;57.13;101201.34;5056030;28;20040;-83
2021/07/19 08:58:31;;;;;;;11.15;5.55;;;;;;;19.80;58.46;101196.19;5072343;28;20097;-81
2021/07/19 09:01:00;;;;;;;8.90;5.15;;;;;;;20.04;59.16;101199.44;5068217;28;20046;-82
2021/07/19 09:03:28;;;;;;;8.73;5.15;;;;;;;20.27;59.69;101199.13;5094598;28;20052;-81
2021/07/19 09:05:57;;;;;;;9.95;5.85;;;;;;;20.44;59.13;101192.91;5090720;28;20981;-82
2021/07/19 09:08:26;;;;;;;7.95;4.55;;;;;;;20.50;57.59;101193.44;5086766;28;20713;-81
2021/07/19 09:10:53;;;;;;;8.07;5.05;;;;;;;20.60;57.42;101193.84;5073788;28;20093;-84
2021/07/19 09:13:21;;;;;;;9.07;5.10;;;;;;;20.77;57.18;101196.47;5090898;28;20044;-83
2021/07/19 09:15:52;;;;;;;7.15;5.38;;;;;;;20.73;56.81;101191.34;5073113;28;20071;-81
2021/07/19 09:18:24;;;;;;;9.85;5.30;;;;;;;20.70;56.83;101191.50;5089994;28;20044;-84
2021/07/19 09:20:52;;;;;;;8.52;4.85;;;;;;;20.53;55.74;101184.38;5075954;28;20570;-82
2021/07/19 09:23:29;;;;;;;10.60;4.53;;;;;;;20.48;57.79;101189.97;5059640;28;20456;-82
2021/07/19 09:25:56;;;;;;;12.18;5.47;;;;;;;20.48;57.18;101189.09;5056034;28;20474;-84
2021/07/19 09:28:30;;;;;;;9.10;5.53;;;;;;;20.35;57.02;101191.56;5073575;28;20039;-82
2021/07/19 09:31:09;;;;;;;7.75;4.45;;;;;;;20.25;57.11;101187.59;5090135;28;20032;-82
2021/07/19 09:33:36;;;;;;;27.58;6.55;;;;;;;20.16;58.65;101190.75;5073688;28;20113;-83
2021/07/19 09:36:04;;;;;;;7.85;4.60;;;;;;;20.02;58.09;101187.94;5071400;28;20035;-81
2021/07/19 09:38:31;;;;;;;9.77;5.03;;;;;;;20.10;60.51;101188.41;5091204;28;20040;-82
2021/07/19 09:41:01;;;;;;;7.97;5.45;;;;;;;20.07;59.46;101188.56;5086622;28;20767;-82
2021/07/19 09:43:32;;;;;;;7.93;5.03;;;;;;;20.17;60.29;101182.63;5056020;28;20048;-81
2021/07/19 09:46:00;;;;;;;9.02;4.85;;;;;;;20.11;60.93;101182.09;5086729;28;20101;-83
2021/07/19 09:48:27;;;;;;;8.82;4.93;;;;;;;20.08;58.60;101182.22;5069109;28;20058;-82
2021/07/19 09:50:54;;;;;;;8.00;5.40;;;;;;;20.05;59.16;101179.72;5068689;28;20063;-85
2021/07/19 09:53:28;;;;;;;7.68;4.55;;;;;;;20.20;60.98;101177.13;5053061;28;20520;-81
2021/07/19 09:56:05;;;;;;;;;;;;;;;20.34;59.94;101165.63;5085833;28;20040;-81
2021/07/19 09:58:32;;;;;;;6.70;4.75;;;;;;;20.31;56.99;101173.00;5089141;28;19973;-82
2021/07/19 10:01:01;;;;;;;7.50;4.38;;;;;;;20.32;59.84;101174.72;5062609;28;20097;-85
2021/07/19 10:03:30;;;;;;;7.68;4.53;;;;;;;20.20;58.48;101168.19;5069752;28;20090;-83
2021/07/19 10:06:05;;;;;;;5.65;4.13;;;;;;;19.95;57.50;101176.66;5087275;28;20083;-82
2021/07/19 10:08:32;;;;;;;6.93;4.30;;;;;;;19.67;57.50;101170.00;5073250;28;20051;-82
2021/07/19 10:10:59;;;;;;;7.88;4.32;;;;;;;19.47;60.60;101172.75;5070670;28;20040;-83
2021/07/19 10:13:33;;;;;;;7.55;4.30;;;;;;;19.22;61.90;101169.53;5072886;28;20033;-83
2021/07/19 10:16:01;;;;;;;7.43;4.40;;;;;;;18.92;60.78;101178.13;5084276;28;20408;-85
2021/07/19 10:18:30;;;;;;;7.80;4.45;;;;;;;18.99;63.17;101176.84;5061515;28;20557;-80
2021/07/19 10:20:57;;;;;;;10.30;4.05;;;;;;;18.94;63.50;101178.03;5060465;28;20047;-87
2021/07/19 10:23:24;;;;;;;8.75;4.88;;;;;;;19.04;65.63;101182.88;5098252;28;20085;-82
2021/07/19 10:25:51;;;;;;;11.13;4.68;;;;;;;19.01;65.29;101175.00;5058647;28;20044;-87
2021/07/19 10:28:18;;;;;;;5.68;4.05;;;;;;;19.00;61.98;101178.63;5077339;28;20044;-84
2021/07/19 10:30:48;;;;;;;10.65;4.57;;;;;;;19.04;63.28;101179.34;5076000;28;20040;-84
2021/07/19 10:33:18;;;;;;;7.32;4.35;;;;;;;19.13;63.49;101182.44;5062504;28;20508;-84
2021/07/19 10:35:44;;;;;;;5.70;4.25;;;;;;;19.34;62.40;101171.66;5061465;28;20040;-83
2021/07/19 10:38:26;;;;;;;7.80;4.18;;;;;;;19.52;60.90;101172.56;5079482;28;20043;-85
2021/07/19 10:40:53;;;;;;;8.80;3.88;;;;;;;19.68;58.79;101182.47;5075903;28;20044;-80
2021/07/19 10:43:21;;;;;;;8.18;3.60;;;;;;;19.68;58.00;101173.56;5075668;28;20043;-85
2021/07/19 10:45:59;;;;;;;6.25;3.53;;;;;;;19.54;57.41;101173.34;5090009;28;20044;-84
2021/07/19 10:48:31;;;;;;;6.38;4.15;;;;;;;19.72;60.62;101182.31;5059508;28;20048;-85
2021/07/19 10:51:00;;;;;;;6.93;3.83;;;;;;;19.47;57.21;101174.56;5058167;28;20056;-84
2021/07/19 10:53:28;;;;;;;8.07;4.68;;;;;;;19.64;59.74;101180.00;5083078;28;20051;-81
2021/07/19 10:56:01;;;;;;;6.00;3.35;;;;;;;19.80;59.17;101183.66;5050359;28;20052;-82
2021/07/19 10:58:42;;;;;;;7.03;4.15;;;;;;;19.81;57.42;101181.84;5075954;28;20528;-81
2021/07/19 11:01:23;;;;;;;6.85;4.28;;;;;;;20.00;59.74;101173.72;5081798;28;20413;-81
2021/07/19 11:03:52;;;;;;;5.70;3.95;;;;;;;20.22;60.82;101177.91;5071672;28;20127;-83
2021/07/19 11:06:49;;;;;;;8.38;3.55;;;;;;;20.35;57.06;101183.50;5089885;28;20039;-83
2021/07/19 11:09:19;;;;;;;6.68;3.88;;;;;;;20.37;56.94;101168.19;5072560;28;20044;-83
2021/07/19 11:11:46;;;;;;;6.90;3.95;;;;;;;20.35;57.83;101183.50;5080008;28;20048;-84
2021/07/19 11:14:13;;;;;;;6.00;3.67;;;;;;;20.31;57.21;101176.53;5072294;28;20036;-84
2021/07/19 11:16:50;;;;;;;6.10;3.70;;;;;;;20.50;60.44;101171.94;5107162;28;20048;-84
2021/07/19 11:19:31;;;;;;;6.35;4.07;;;;;;;20.67;58.66;101173.72;5074222;28;20051;-83
2021/07/19 11:22:12;;;;;;;8.18;4.53;;;;;;;20.79;57.19;101181.13;5068636;28;20101;-82
2021/07/19 11:24:47;;;;;;;7.88;3.88;;;;;;;20.62;55.50;101180.31;5074935;28;20108;-85
2021/07/19 11:27:40;;;;;;;6.57;3.67;;;;;;;20.66;56.67;101182.75;5076965;28;20037;-84
2021/07/19 11:30:10;;;;;;;5.50;3.42;;;;;;;20.86;57.32;101162.88;5068065;28;20501;-82